sensor_id;sensor_type;location;lat;lon;timestamp;temperature;humidity
52669;DHT22;59898;52.786;6.892;2023-05-01T00:02:54;11.00;99.90
52669;DHT22;59898;52.786;6.892;2023-05-01T00:06:14;11.00;99.90
52669;DHT22;59898;52.786;6.892;2023-05-01T00:09:35;11.00;99.90
52669;DHT22;59898;52.786;6.892;2023-05-01T00:12:55;10.90;99.90
52669;DHT22;59898;52.786;6.892;2023-05-01T00:16:16;10.90;99.90
52669;DHT22;59898;52.786;6.892;2023-05-01T00:19:37;10.80;99.90
52669;DHT22;59898;52.786;6.892;2023-05-01T00:22:57;10.80;99.90
52669;DHT22;59898;52.786;6.892;2023-05-01T00:26:18;10.70;99.90
52669;DHT22;59898;52.786;6.892;2023-05-01T00:29:38;10.60;99.90
52669;DHT22;59898;52.786;6.892;2023-05-01T00:32:59;10.60;99.90
52669;DHT22;59898;52.786;6.892;2023-05-01T00:36:21;10.60;99.90
52669;DHT22;59898;52.786;6.892;2023-05-01T00:39:41;10.50;99.90
52669;DHT22;59898;52.786;6.892;2023-05-01T00:43:02;10.50;99.90
52669;DHT22;59898;52.786;6.892;2023-05-01T00:46:23;10.50;99.90
52669;DHT22;59898;52.786;6.892;2023-05-01T00:49:45;10.50;99.90
52669;DHT22;59898;52.786;6.892;2023-05-01T00:53:06;10.40;99.90
52669;DHT22;59898;52.786;6.892;2023-05-01T00:56:27;10.40;99.90
52669;DHT22;59898;52.786;6.892;2023-05-01T00:59:48;10.40;99.90
52669;DHT22;59898;52.786;6.892;2023-05-01T01:03:09;10.40;99.90
52669;DHT22;59898;52.786;6.892;2023-05-01T01:06:46;10.30;99.90
52669;DHT22;59898;52.786;6.892;2023-05-01T01:10:12;10.30;99.90
52669;DHT22;59898;52.786;6.892;2023-05-01T01:13:42;10.30;99.90
52669;DHT22;59898;52.786;6.892;2023-05-01T01:17:29;10.20;99.90
52669;DHT22;59898;52.786;6.892;2023-05-01T01:21:07;10.20;99.90
52669;DHT22;59898;52.786;6.892;2023-05-01T01:36:09;10.10;99.90
52669;DHT22;59898;52.786;6.892;2023-05-01T01:39:53;10.10;99.90
52669;DHT22;59898;52.786;6.892;2023-05-01T01:43:18;10.20;99.90
52669;DHT22;59898;52.786;6.892;2023-05-01T01:46:40;10.10;99.90
52669;DHT22;59898;52.786;6.892;2023-05-01T01:50:04;10.10;99.90
52669;DHT22;59898;52.786;6.892;2023-05-01T01:53:27;10.10;99.90
52669;DHT22;59898;52.786;6.892;2023-05-01T01:56:49;10.10;99.90
52669;DHT22;59898;52.786;6.892;2023-05-01T02:00:11;10.10;99.90
52669;DHT22;59898;52.786;6.892;2023-05-01T02:03:33;10.00;99.90
52669;DHT22;59898;52.786;6.892;2023-05-01T02:06:55;9.90;99.90
52669;DHT22;59898;52.786;6.892;2023-05-01T02:10:18;10.00;99.90
52669;DHT22;59898;52.786;6.892;2023-05-01T02:13:41;9.90;99.90
52669;DHT22;59898;52.786;6.892;2023-05-01T02:17:03;9.80;99.90
52669;DHT22;59898;52.786;6.892;2023-05-01T02:20:24;9.80;99.90
52669;DHT22;59898;52.786;6.892;2023-05-01T02:23:45;9.80;99.90
52669;DHT22;59898;52.786;6.892;2023-05-01T02:27:31;9.70;99.90
52669;DHT22;59898;52.786;6.892;2023-05-01T02:30:52;9.60;99.90
52669;DHT22;59898;52.786;6.892;2023-05-01T02:34:12;9.60;99.90
52669;DHT22;59898;52.786;6.892;2023-05-01T02:37:33;9.50;99.90
52669;DHT22;59898;52.786;6.892;2023-05-01T02:40:56;9.40;99.90
52669;DHT22;59898;52.786;6.892;2023-05-01T02:44:18;9.40;99.90
52669;DHT22;59898;52.786;6.892;2023-05-01T02:47:41;9.40;99.90
52669;DHT22;59898;52.786;6.892;2023-05-01T02:51:02;9.40;99.90
52669;DHT22;59898;52.786;6.892;2023-05-01T02:54:23;9.40;99.90
52669;DHT22;59898;52.786;6.892;2023-05-01T02:57:44;9.30;99.90
52669;DHT22;59898;52.786;6.892;2023-05-01T03:01:04;9.30;99.90
52669;DHT22;59898;52.786;6.892;2023-05-01T03:04:25;9.30;99.90
52669;DHT22;59898;52.786;6.892;2023-05-01T03:07:46;9.30;99.90
52669;DHT22;59898;52.786;6.892;2023-05-01T03:11:07;9.20;99.90
52669;DHT22;59898;52.786;6.892;2023-05-01T03:14:28;9.20;99.90
52669;DHT22;59898;52.786;6.892;2023-05-01T03:17:49;9.10;99.90
52669;DHT22;59898;52.786;6.892;2023-05-01T03:21:09;9.10;99.90
52669;DHT22;59898;52.786;6.892;2023-05-01T03:24:31;9.10;99.90
52669;DHT22;59898;52.786;6.892;2023-05-01T03:27:52;9.00;99.90
52669;DHT22;59898;52.786;6.892;2023-05-01T03:31:13;9.00;99.90
52669;DHT22;59898;52.786;6.892;2023-05-01T03:34:34;9.00;99.90
52669;DHT22;59898;52.786;6.892;2023-05-01T03:37:55;8.90;99.90
52669;DHT22;59898;52.786;6.892;2023-05-01T03:41:15;9.00;99.90
52669;DHT22;59898;52.786;6.892;2023-05-01T03:44:37;8.90;99.90
52669;DHT22;59898;52.786;6.892;2023-05-01T03:47:57;8.90;99.90
52669;DHT22;59898;52.786;6.892;2023-05-01T03:51:18;8.90;99.90
52669;DHT22;59898;52.786;6.892;2023-05-01T03:54:38;8.80;99.90
52669;DHT22;59898;52.786;6.892;2023-05-01T03:57:59;8.80;99.90
52669;DHT22;59898;52.786;6.892;2023-05-01T04:01:19;8.80;99.90
52669;DHT22;59898;52.786;6.892;2023-05-01T04:04:40;8.70;99.90
52669;DHT22;59898;52.786;6.892;2023-05-01T04:08:01;8.10;99.90
52669;DHT22;59898;52.786;6.892;2023-05-01T04:11:21;8.60;99.90
52669;DHT22;59898;52.786;6.892;2023-05-01T04:14:42;8.60;99.90
52669;DHT22;59898;52.786;6.892;2023-05-01T04:18:03;8.60;99.90
52669;DHT22;59898;52.786;6.892;2023-05-01T04:21:24;8.60;99.90
52669;DHT22;59898;52.786;6.892;2023-05-01T04:24:45;8.60;99.90
52669;DHT22;59898;52.786;6.892;2023-05-01T04:28:06;8.60;99.90
52669;DHT22;59898;52.786;6.892;2023-05-01T04:31:26;8.60;99.90
52669;DHT22;59898;52.786;6.892;2023-05-01T04:34:47;8.60;99.90
52669;DHT22;59898;52.786;6.892;2023-05-01T04:38:08;8.60;99.90
52669;DHT22;59898;52.786;6.892;2023-05-01T04:41:29;8.60;99.90
52669;DHT22;59898;52.786;6.892;2023-05-01T04:44:50;8.60;99.90
52669;DHT22;59898;52.786;6.892;2023-05-01T04:48:10;8.70;99.90
52669;DHT22;59898;52.786;6.892;2023-05-01T04:51:31;8.70;99.90
52669;DHT22;59898;52.786;6.892;2023-05-01T04:54:51;8.70;99.90
52669;DHT22;59898;52.786;6.892;2023-05-01T04:58:12;8.70;99.90
52669;DHT22;59898;52.786;6.892;2023-05-01T05:01:33;8.70;99.90
52669;DHT22;59898;52.786;6.892;2023-05-01T05:04:53;8.70;99.90
52669;DHT22;59898;52.786;6.892;2023-05-01T05:08:14;8.80;99.90
52669;DHT22;59898;52.786;6.892;2023-05-01T05:11:34;8.90;99.90
52669;DHT22;59898;52.786;6.892;2023-05-01T05:14:55;8.90;99.90
52669;DHT22;59898;52.786;6.892;2023-05-01T05:18:16;9.00;99.90
52669;DHT22;59898;52.786;6.892;2023-05-01T05:21:36;9.00;99.90
52669;DHT22;59898;52.786;6.892;2023-05-01T05:24:57;9.10;99.90
52669;DHT22;59898;52.786;6.892;2023-05-01T05:28:23;9.10;99.90
52669;DHT22;59898;52.786;6.892;2023-05-01T05:31:43;9.20;99.90
52669;DHT22;59898;52.786;6.892;2023-05-01T05:35:05;9.30;99.90
52669;DHT22;59898;52.786;6.892;2023-05-01T05:38:26;9.30;99.90
52669;DHT22;59898;52.786;6.892;2023-05-01T05:41:47;9.40;99.90
52669;DHT22;59898;52.786;6.892;2023-05-01T05:45:08;9.50;99.90
52669;DHT22;59898;52.786;6.892;2023-05-01T05:48:29;9.50;99.90
52669;DHT22;59898;52.786;6.892;2023-05-01T05:51:50;9.60;99.90
52669;DHT22;59898;52.786;6.892;2023-05-01T05:55:10;9.70;99.90
52669;DHT22;59898;52.786;6.892;2023-05-01T05:58:31;9.80;99.90
52669;DHT22;59898;52.786;6.892;2023-05-01T06:01:52;9.90;99.90
52669;DHT22;59898;52.786;6.892;2023-05-01T06:05:12;10.40;99.90
52669;DHT22;59898;52.786;6.892;2023-05-01T06:08:33;10.10;99.90
52669;DHT22;59898;52.786;6.892;2023-05-01T06:11:55;10.10;99.90
52669;DHT22;59898;52.786;6.892;2023-05-01T06:15:17;10.20;99.90
52669;DHT22;59898;52.786;6.892;2023-05-01T06:18:38;10.30;99.90
52669;DHT22;59898;52.786;6.892;2023-05-01T06:21:58;10.40;99.90
52669;DHT22;59898;52.786;6.892;2023-05-01T06:25:19;10.50;99.90
52669;DHT22;59898;52.786;6.892;2023-05-01T06:28:39;10.60;99.90
52669;DHT22;59898;52.786;6.892;2023-05-01T06:32:00;10.80;99.90
52669;DHT22;59898;52.786;6.892;2023-05-01T06:35:21;10.90;99.90
52669;DHT22;59898;52.786;6.892;2023-05-01T06:38:41;11.00;99.90
52669;DHT22;59898;52.786;6.892;2023-05-01T06:42:07;11.10;99.90
52669;DHT22;59898;52.786;6.892;2023-05-01T06:45:31;11.20;99.90
52669;DHT22;59898;52.786;6.892;2023-05-01T06:48:51;11.20;99.90
52669;DHT22;59898;52.786;6.892;2023-05-01T06:52:12;11.40;99.90
52669;DHT22;59898;52.786;6.892;2023-05-01T06:55:33;11.50;99.90
52669;DHT22;59898;52.786;6.892;2023-05-01T06:58:53;11.60;99.90
52669;DHT22;59898;52.786;6.892;2023-05-01T07:02:14;11.70;99.90
52669;DHT22;59898;52.786;6.892;2023-05-01T07:05:34;11.80;99.90
52669;DHT22;59898;52.786;6.892;2023-05-01T07:08:55;11.90;99.90
52669;DHT22;59898;52.786;6.892;2023-05-01T07:12:15;12.00;99.90
52669;DHT22;59898;52.786;6.892;2023-05-01T07:15:36;12.10;99.90
52669;DHT22;59898;52.786;6.892;2023-05-01T07:18:57;12.20;99.90
52669;DHT22;59898;52.786;6.892;2023-05-01T07:22:18;12.30;99.90
52669;DHT22;59898;52.786;6.892;2023-05-01T07:25:38;12.30;99.90
52669;DHT22;59898;52.786;6.892;2023-05-01T07:29:03;12.40;99.90
52669;DHT22;59898;52.786;6.892;2023-05-01T07:32:24;12.40;99.90
52669;DHT22;59898;52.786;6.892;2023-05-01T07:35:45;12.40;99.90
52669;DHT22;59898;52.786;6.892;2023-05-01T07:39:06;12.50;99.90
52669;DHT22;59898;52.786;6.892;2023-05-01T07:42:27;12.50;99.90
52669;DHT22;59898;52.786;6.892;2023-05-01T07:46:00;12.60;99.90
52669;DHT22;59898;52.786;6.892;2023-05-01T07:49:20;12.70;99.90
52669;DHT22;59898;52.786;6.892;2023-05-01T07:52:41;12.60;99.90
52669;DHT22;59898;52.786;6.892;2023-05-01T07:56:09;12.70;99.90
52669;DHT22;59898;52.786;6.892;2023-05-01T07:59:29;12.80;99.90
52669;DHT22;59898;52.786;6.892;2023-05-01T08:02:50;12.80;99.90
52669;DHT22;59898;52.786;6.892;2023-05-01T08:06:11;12.90;99.90
52669;DHT22;59898;52.786;6.892;2023-05-01T08:09:31;13.00;99.90
52669;DHT22;59898;52.786;6.892;2023-05-01T08:12:52;13.10;99.90
52669;DHT22;59898;52.786;6.892;2023-05-01T08:16:12;13.20;99.90
52669;DHT22;59898;52.786;6.892;2023-05-01T08:19:33;13.20;99.90
52669;DHT22;59898;52.786;6.892;2023-05-01T08:22:54;13.40;99.90
52669;DHT22;59898;52.786;6.892;2023-05-01T08:26:15;13.60;99.90
52669;DHT22;59898;52.786;6.892;2023-05-01T08:29:36;13.80;99.90
52669;DHT22;59898;52.786;6.892;2023-05-01T08:32:56;14.00;99.90
52669;DHT22;59898;52.786;6.892;2023-05-01T08:36:17;14.20;99.90
52669;DHT22;59898;52.786;6.892;2023-05-01T08:39:37;14.30;99.90
52669;DHT22;59898;52.786;6.892;2023-05-01T08:43:01;14.40;99.90
52669;DHT22;59898;52.786;6.892;2023-05-01T08:46:32;14.60;99.90
52669;DHT22;59898;52.786;6.892;2023-05-01T08:49:58;14.70;99.90
52669;DHT22;59898;52.786;6.892;2023-05-01T08:53:19;14.90;99.90
52669;DHT22;59898;52.786;6.892;2023-05-01T08:56:42;15.00;99.90
52669;DHT22;59898;52.786;6.892;2023-05-01T09:00:07;15.20;99.90
52669;DHT22;59898;52.786;6.892;2023-05-01T09:03:30;15.30;99.90
52669;DHT22;59898;52.786;6.892;2023-05-01T09:06:53;15.40;99.90
52669;DHT22;59898;52.786;6.892;2023-05-01T09:10:16;15.40;99.90
52669;DHT22;59898;52.786;6.892;2023-05-01T09:13:38;15.50;99.90
52669;DHT22;59898;52.786;6.892;2023-05-01T09:16:58;15.70;99.90
52669;DHT22;59898;52.786;6.892;2023-05-01T09:20:20;15.90;99.90
52669;DHT22;59898;52.786;6.892;2023-05-01T09:23:40;16.10;99.90
52669;DHT22;59898;52.786;6.892;2023-05-01T09:27:01;16.10;99.90
52669;DHT22;59898;52.786;6.892;2023-05-01T09:30:34;16.20;99.90
52669;DHT22;59898;52.786;6.892;2023-05-01T09:34:00;16.40;99.90
52669;DHT22;59898;52.786;6.892;2023-05-01T09:40:49;16.80;99.90
52669;DHT22;59898;52.786;6.892;2023-05-01T09:44:16;17.10;99.90
52669;DHT22;59898;52.786;6.892;2023-05-01T09:47:38;17.30;99.90
52669;DHT22;59898;52.786;6.892;2023-05-01T09:51:00;17.60;99.90
52669;DHT22;59898;52.786;6.892;2023-05-01T09:54:21;17.80;99.50
52669;DHT22;59898;52.786;6.892;2023-05-01T09:57:42;17.80;98.90
52669;DHT22;59898;52.786;6.892;2023-05-01T10:01:03;18.00;98.50
52669;DHT22;59898;52.786;6.892;2023-05-01T10:04:31;18.20;98.40
52669;DHT22;59898;52.786;6.892;2023-05-01T10:08:00;18.30;98.50
52669;DHT22;59898;52.786;6.892;2023-05-01T10:11:21;18.60;98.40
52669;DHT22;59898;52.786;6.892;2023-05-01T10:14:52;18.70;98.20
52669;DHT22;59898;52.786;6.892;2023-05-01T10:18:13;18.90;98.00
52669;DHT22;59898;52.786;6.892;2023-05-01T10:21:34;18.90;97.70
52669;DHT22;59898;52.786;6.892;2023-05-01T10:24:55;18.90;97.30
52669;DHT22;59898;52.786;6.892;2023-05-01T10:28:22;19.00;97.30
52669;DHT22;59898;52.786;6.892;2023-05-01T10:31:44;19.20;96.90
52669;DHT22;59898;52.786;6.892;2023-05-01T10:35:09;19.50;96.30
52669;DHT22;59898;52.786;6.892;2023-05-01T10:38:32;19.70;95.50
52669;DHT22;59898;52.786;6.892;2023-05-01T10:45:27;20.00;94.70
52669;DHT22;59898;52.786;6.892;2023-05-01T10:52:09;20.40;92.80
52669;DHT22;59898;52.786;6.892;2023-05-01T10:55:33;20.80;92.30
52669;DHT22;59898;52.786;6.892;2023-05-01T10:58:58;20.80;92.10
52669;DHT22;59898;52.786;6.892;2023-05-01T11:02:21;21.00;92.00
52669;DHT22;59898;52.786;6.892;2023-05-01T11:12:57;21.30;91.50
52669;DHT22;59898;52.786;6.892;2023-05-01T11:19:59;21.20;91.50
52669;DHT22;59898;52.786;6.892;2023-05-01T11:23:21;21.30;91.10
52669;DHT22;59898;52.786;6.892;2023-05-01T11:26:42;21.40;91.10
52669;DHT22;59898;52.786;6.892;2023-05-01T11:30:03;21.60;90.90
52669;DHT22;59898;52.786;6.892;2023-05-01T11:33:24;21.80;90.70
52669;DHT22;59898;52.786;6.892;2023-05-01T11:36:49;21.90;90.60
52669;DHT22;59898;52.786;6.892;2023-05-01T11:40:28;21.90;90.50
52669;DHT22;59898;52.786;6.892;2023-05-01T11:43:49;22.00;90.70
52669;DHT22;59898;52.786;6.892;2023-05-01T11:47:10;22.10;90.10
52669;DHT22;59898;52.786;6.892;2023-05-01T11:50:32;22.20;89.90
52669;DHT22;59898;52.786;6.892;2023-05-01T11:54:05;22.30;89.40
52669;DHT22;59898;52.786;6.892;2023-05-01T11:57:26;22.40;89.70
52669;DHT22;59898;52.786;6.892;2023-05-01T12:00:49;22.40;89.70
52669;DHT22;59898;52.786;6.892;2023-05-01T12:04:10;22.50;89.70
52669;DHT22;59898;52.786;6.892;2023-05-01T12:07:31;22.60;90.70
52669;DHT22;59898;52.786;6.892;2023-05-01T12:10:55;22.60;89.60
52669;DHT22;59898;52.786;6.892;2023-05-01T12:14:17;22.60;88.30
52669;DHT22;59898;52.786;6.892;2023-05-01T12:17:38;22.50;89.00
52669;DHT22;59898;52.786;6.892;2023-05-01T12:20:58;22.50;89.80
52669;DHT22;59898;52.786;6.892;2023-05-01T12:24:19;22.50;88.80
52669;DHT22;59898;52.786;6.892;2023-05-01T12:27:43;22.50;87.70
52669;DHT22;59898;52.786;6.892;2023-05-01T12:31:04;22.50;86.90
52669;DHT22;59898;52.786;6.892;2023-05-01T12:34:29;22.40;85.90
52669;DHT22;59898;52.786;6.892;2023-05-01T12:37:51;22.20;86.10
52669;DHT22;59898;52.786;6.892;2023-05-01T12:41:12;22.10;85.90
52669;DHT22;59898;52.786;6.892;2023-05-01T12:44:32;22.00;85.90
52669;DHT22;59898;52.786;6.892;2023-05-01T12:47:53;21.90;85.80
52669;DHT22;59898;52.786;6.892;2023-05-01T12:51:18;21.80;85.60
52669;DHT22;59898;52.786;6.892;2023-05-01T12:54:42;21.70;85.80
52669;DHT22;59898;52.786;6.892;2023-05-01T12:58:03;21.70;85.50
52669;DHT22;59898;52.786;6.892;2023-05-01T13:01:27;21.60;85.50
52669;DHT22;59898;52.786;6.892;2023-05-01T13:04:48;21.70;85.80
52669;DHT22;59898;52.786;6.892;2023-05-01T13:08:09;21.70;85.50
52669;DHT22;59898;52.786;6.892;2023-05-01T13:11:30;21.80;85.50
52669;DHT22;59898;52.786;6.892;2023-05-01T13:14:50;21.80;85.30
52669;DHT22;59898;52.786;6.892;2023-05-01T13:18:11;21.80;84.80
52669;DHT22;59898;52.786;6.892;2023-05-01T13:21:32;21.80;84.70
52669;DHT22;59898;52.786;6.892;2023-05-01T13:24:52;21.90;85.00
52669;DHT22;59898;52.786;6.892;2023-05-01T13:28:17;22.00;85.30
52669;DHT22;59898;52.786;6.892;2023-05-01T13:31:43;22.10;85.00
52669;DHT22;59898;52.786;6.892;2023-05-01T13:35:04;22.10;84.80
52669;DHT22;59898;52.786;6.892;2023-05-01T13:38:27;22.20;84.60
52669;DHT22;59898;52.786;6.892;2023-05-01T13:41:49;22.20;84.30
52669;DHT22;59898;52.786;6.892;2023-05-01T13:45:11;22.50;84.00
52669;DHT22;59898;52.786;6.892;2023-05-01T13:48:33;22.50;83.60
52669;DHT22;59898;52.786;6.892;2023-05-01T13:51:54;22.60;83.10
52669;DHT22;59898;52.786;6.892;2023-05-01T13:55:16;22.50;82.90
52669;DHT22;59898;52.786;6.892;2023-05-01T13:58:36;22.50;83.00
52669;DHT22;59898;52.786;6.892;2023-05-01T14:01:57;22.40;83.10
52669;DHT22;59898;52.786;6.892;2023-05-01T14:05:26;22.40;83.30
52669;DHT22;59898;52.786;6.892;2023-05-01T14:08:50;22.20;83.20
52669;DHT22;59898;52.786;6.892;2023-05-01T14:12:12;22.10;82.80
52669;DHT22;59898;52.786;6.892;2023-05-01T14:15:34;21.90;82.80
52669;DHT22;59898;52.786;6.892;2023-05-01T14:18:55;21.80;82.70
52669;DHT22;59898;52.786;6.892;2023-05-01T14:22:16;21.70;82.60
52669;DHT22;59898;52.786;6.892;2023-05-01T14:25:36;21.70;82.70
52669;DHT22;59898;52.786;6.892;2023-05-01T14:28:57;21.80;82.50
52669;DHT22;59898;52.786;6.892;2023-05-01T14:32:18;21.70;82.30
52669;DHT22;59898;52.786;6.892;2023-05-01T14:35:52;21.60;82.40
52669;DHT22;59898;52.786;6.892;2023-05-01T14:39:13;21.50;83.40
52669;DHT22;59898;52.786;6.892;2023-05-01T14:42:35;21.40;82.80
52669;DHT22;59898;52.786;6.892;2023-05-01T14:45:56;21.40;83.10
52669;DHT22;59898;52.786;6.892;2023-05-01T14:49:18;21.40;83.30
52669;DHT22;59898;52.786;6.892;2023-05-01T14:52:39;21.40;83.60
52669;DHT22;59898;52.786;6.892;2023-05-01T14:56:00;21.40;83.70
52669;DHT22;59898;52.786;6.892;2023-05-01T14:59:21;21.50;84.10
52669;DHT22;59898;52.786;6.892;2023-05-01T15:02:44;21.40;84.20
52669;DHT22;59898;52.786;6.892;2023-05-01T15:06:05;21.50;85.50
52669;DHT22;59898;52.786;6.892;2023-05-01T15:09:26;21.50;84.70
52669;DHT22;59898;52.786;6.892;2023-05-01T15:12:47;21.60;84.80
52669;DHT22;59898;52.786;6.892;2023-05-01T15:16:07;21.50;84.60
52669;DHT22;59898;52.786;6.892;2023-05-01T15:19:28;21.50;84.60
52669;DHT22;59898;52.786;6.892;2023-05-01T15:22:49;21.50;84.80
52669;DHT22;59898;52.786;6.892;2023-05-01T15:26:10;21.50;84.80
52669;DHT22;59898;52.786;6.892;2023-05-01T15:29:31;21.40;84.80
52669;DHT22;59898;52.786;6.892;2023-05-01T15:32:51;21.40;85.10
52669;DHT22;59898;52.786;6.892;2023-05-01T15:36:14;21.30;85.10
52669;DHT22;59898;52.786;6.892;2023-05-01T15:39:36;21.30;85.20
52669;DHT22;59898;52.786;6.892;2023-05-01T15:42:57;21.20;85.40
52669;DHT22;59898;52.786;6.892;2023-05-01T15:46:17;21.20;85.80
52669;DHT22;59898;52.786;6.892;2023-05-01T15:49:39;21.20;86.00
52669;DHT22;59898;52.786;6.892;2023-05-01T15:52:59;21.20;86.00
52669;DHT22;59898;52.786;6.892;2023-05-01T15:56:20;21.10;86.20
52669;DHT22;59898;52.786;6.892;2023-05-01T15:59:42;21.20;86.80
52669;DHT22;59898;52.786;6.892;2023-05-01T16:03:02;21.20;87.30
52669;DHT22;59898;52.786;6.892;2023-05-01T16:06:23;21.10;87.90
52669;DHT22;59898;52.786;6.892;2023-05-01T16:09:45;21.10;88.20
52669;DHT22;59898;52.786;6.892;2023-05-01T16:13:06;21.00;89.00
52669;DHT22;59898;52.786;6.892;2023-05-01T16:16:27;21.00;89.20
52669;DHT22;59898;52.786;6.892;2023-05-01T16:19:48;20.90;89.80
52669;DHT22;59898;52.786;6.892;2023-05-01T16:23:10;20.80;90.10
52669;DHT22;59898;52.786;6.892;2023-05-01T16:26:32;20.80;90.30
52669;DHT22;59898;52.786;6.892;2023-05-01T16:29:53;20.80;90.30
52669;DHT22;59898;52.786;6.892;2023-05-01T16:33:16;20.80;90.40
52669;DHT22;59898;52.786;6.892;2023-05-01T16:36:39;20.70;90.50
52669;DHT22;59898;52.786;6.892;2023-05-01T16:40:02;20.60;90.40
52669;DHT22;59898;52.786;6.892;2023-05-01T16:43:23;20.40;90.50
52669;DHT22;59898;52.786;6.892;2023-05-01T16:46:50;20.20;90.60
52669;DHT22;59898;52.786;6.892;2023-05-01T16:50:12;20.20;90.80
52669;DHT22;59898;52.786;6.892;2023-05-01T16:53:33;20.00;91.00
52669;DHT22;59898;52.786;6.892;2023-05-01T16:56:53;19.90;91.10
52669;DHT22;59898;52.786;6.892;2023-05-01T17:00:14;19.90;91.30
52669;DHT22;59898;52.786;6.892;2023-05-01T17:03:35;19.90;91.40
52669;DHT22;59898;52.786;6.892;2023-05-01T17:06:57;19.80;91.60
52669;DHT22;59898;52.786;6.892;2023-05-01T17:10:17;19.80;91.60
52669;DHT22;59898;52.786;6.892;2023-05-01T17:13:38;19.70;91.70
52669;DHT22;59898;52.786;6.892;2023-05-01T17:16:58;19.70;91.80
52669;DHT22;59898;52.786;6.892;2023-05-01T17:20:19;19.60;91.90
52669;DHT22;59898;52.786;6.892;2023-05-01T17:23:40;19.60;92.00
52669;DHT22;59898;52.786;6.892;2023-05-01T17:27:01;19.50;92.10
52669;DHT22;59898;52.786;6.892;2023-05-01T17:30:22;19.40;92.30
52669;DHT22;59898;52.786;6.892;2023-05-01T17:33:45;19.30;92.50
52669;DHT22;59898;52.786;6.892;2023-05-01T17:37:06;19.20;92.80
52669;DHT22;59898;52.786;6.892;2023-05-01T17:40:28;19.10;93.00
52669;DHT22;59898;52.786;6.892;2023-05-01T17:43:48;19.00;93.10
52669;DHT22;59898;52.786;6.892;2023-05-01T17:47:09;18.90;93.20
52669;DHT22;59898;52.786;6.892;2023-05-01T17:50:30;18.80;93.20
52669;DHT22;59898;52.786;6.892;2023-05-01T17:53:50;18.70;93.20
52669;DHT22;59898;52.786;6.892;2023-05-01T17:57:11;18.70;93.40
52669;DHT22;59898;52.786;6.892;2023-05-01T18:00:32;18.60;93.40
52669;DHT22;59898;52.786;6.892;2023-05-01T18:03:53;18.50;93.40
52669;DHT22;59898;52.786;6.892;2023-05-01T18:07:13;18.40;93.50
52669;DHT22;59898;52.786;6.892;2023-05-01T18:10:34;18.30;93.90
52669;DHT22;59898;52.786;6.892;2023-05-01T18:13:55;18.10;93.80
52669;DHT22;59898;52.786;6.892;2023-05-01T18:17:15;18.10;94.00
52669;DHT22;59898;52.786;6.892;2023-05-01T18:20:36;18.00;94.20
52669;DHT22;59898;52.786;6.892;2023-05-01T18:23:56;17.90;94.40
52669;DHT22;59898;52.786;6.892;2023-05-01T18:27:17;17.80;94.60
52669;DHT22;59898;52.786;6.892;2023-05-01T18:30:38;17.70;94.80
52669;DHT22;59898;52.786;6.892;2023-05-01T18:33:59;17.70;95.10
52669;DHT22;59898;52.786;6.892;2023-05-01T18:37:20;17.60;95.40
52669;DHT22;59898;52.786;6.892;2023-05-01T18:40:42;17.50;95.60
52669;DHT22;59898;52.786;6.892;2023-05-01T18:44:02;17.40;95.80
52669;DHT22;59898;52.786;6.892;2023-05-01T18:47:23;17.30;96.10
52669;DHT22;59898;52.786;6.892;2023-05-01T18:50:45;17.30;96.40
52669;DHT22;59898;52.786;6.892;2023-05-01T18:54:06;17.30;96.70
52669;DHT22;59898;52.786;6.892;2023-05-01T18:57:29;17.20;97.10
52669;DHT22;59898;52.786;6.892;2023-05-01T19:00:50;17.10;97.30
52669;DHT22;59898;52.786;6.892;2023-05-01T19:04:11;17.10;97.60
52669;DHT22;59898;52.786;6.892;2023-05-01T19:07:32;17.30;98.10
52669;DHT22;59898;52.786;6.892;2023-05-01T19:10:52;17.10;98.40
52669;DHT22;59898;52.786;6.892;2023-05-01T19:14:13;17.00;98.70
52669;DHT22;59898;52.786;6.892;2023-05-01T19:17:33;17.00;98.90
52669;DHT22;59898;52.786;6.892;2023-05-01T19:20:54;16.90;99.10
52669;DHT22;59898;52.786;6.892;2023-05-01T19:24:14;16.80;99.40
52669;DHT22;59898;52.786;6.892;2023-05-01T19:27:35;16.80;99.60
52669;DHT22;59898;52.786;6.892;2023-05-01T19:30:55;16.80;99.80
52669;DHT22;59898;52.786;6.892;2023-05-01T19:34:16;16.70;99.90
52669;DHT22;59898;52.786;6.892;2023-05-01T19:37:37;16.70;99.90
52669;DHT22;59898;52.786;6.892;2023-05-01T19:40:59;16.60;99.90
52669;DHT22;59898;52.786;6.892;2023-05-01T19:44:19;16.50;99.90
52669;DHT22;59898;52.786;6.892;2023-05-01T19:47:41;16.40;99.90
52669;DHT22;59898;52.786;6.892;2023-05-01T19:51:01;16.30;99.90
52669;DHT22;59898;52.786;6.892;2023-05-01T19:54:23;16.20;99.90
52669;DHT22;59898;52.786;6.892;2023-05-01T19:57:45;16.20;99.90
52669;DHT22;59898;52.786;6.892;2023-05-01T20:01:05;16.00;99.90
52669;DHT22;59898;52.786;6.892;2023-05-01T20:04:28;16.00;99.90
52669;DHT22;59898;52.786;6.892;2023-05-01T20:07:49;15.90;99.90
52669;DHT22;59898;52.786;6.892;2023-05-01T20:11:10;15.90;99.90
52669;DHT22;59898;52.786;6.892;2023-05-01T20:14:30;15.90;99.90
52669;DHT22;59898;52.786;6.892;2023-05-01T20:17:51;15.80;99.90
52669;DHT22;59898;52.786;6.892;2023-05-01T20:21:12;15.80;99.90
52669;DHT22;59898;52.786;6.892;2023-05-01T20:24:32;15.70;99.90
52669;DHT22;59898;52.786;6.892;2023-05-01T20:27:53;15.60;99.90
52669;DHT22;59898;52.786;6.892;2023-05-01T20:31:13;15.60;99.90
52669;DHT22;59898;52.786;6.892;2023-05-01T20:34:34;15.60;99.90
52669;DHT22;59898;52.786;6.892;2023-05-01T20:37:54;15.60;99.90
52669;DHT22;59898;52.786;6.892;2023-05-01T20:41:15;15.60;99.90
52669;DHT22;59898;52.786;6.892;2023-05-01T20:44:35;15.50;99.90
52669;DHT22;59898;52.786;6.892;2023-05-01T20:47:57;15.40;99.90
52669;DHT22;59898;52.786;6.892;2023-05-01T20:51:17;15.30;99.90
52669;DHT22;59898;52.786;6.892;2023-05-01T20:54:38;15.20;99.90
52669;DHT22;59898;52.786;6.892;2023-05-01T20:57:59;15.20;99.90
52669;DHT22;59898;52.786;6.892;2023-05-01T21:01:19;15.10;99.90
52669;DHT22;59898;52.786;6.892;2023-05-01T21:04:40;15.10;99.90
52669;DHT22;59898;52.786;6.892;2023-05-01T21:08:01;15.00;99.90
52669;DHT22;59898;52.786;6.892;2023-05-01T21:11:22;15.00;99.90
52669;DHT22;59898;52.786;6.892;2023-05-01T21:14:43;14.90;99.90
52669;DHT22;59898;52.786;6.892;2023-05-01T21:18:03;14.80;99.90
52669;DHT22;59898;52.786;6.892;2023-05-01T21:21:24;14.60;99.90
52669;DHT22;59898;52.786;6.892;2023-05-01T21:24:51;14.50;99.90
52669;DHT22;59898;52.786;6.892;2023-05-01T21:28:12;14.40;99.90
52669;DHT22;59898;52.786;6.892;2023-05-01T21:31:33;14.30;99.90
52669;DHT22;59898;52.786;6.892;2023-05-01T21:34:55;14.20;99.90
52669;DHT22;59898;52.786;6.892;2023-05-01T21:38:16;14.10;99.90
52669;DHT22;59898;52.786;6.892;2023-05-01T21:41:38;14.10;99.90
52669;DHT22;59898;52.786;6.892;2023-05-01T21:44:59;14.00;99.90
52669;DHT22;59898;52.786;6.892;2023-05-01T21:48:25;14.00;99.90
52669;DHT22;59898;52.786;6.892;2023-05-01T21:51:48;14.00;99.90